EGPH

Edinburgh Airport

Edinburgh, United Kingdom
TAF EGPH 241656Z 2418/2518 24006KT 9999 FEW040 BECMG 2509/2512 22016KT TEMPO 2511/2518 22020G30KT
Issued Valid From Valid To
Sep-24 @ 16:56 UTC
(3 hours ago)
Sep-24 @ 18:00 UTC
(2 hours ago)
Sep-25 @ 18:00 UTC
(in 22 hours)
Sep-24 @ 18:00 to Sep-25 @ 09:00
TAF EGPH 241656Z 2418/2518 24006KT 9999 FEW040
Wind Visibility Clouds
240° at 6 knots 10,000+ meters
  • Few at 4,000' AGL
Becoming Sep-25 @ 09:00 to Sep-25 @ 18:00
BECMG 2509/2512 22016KT
Wind Visibility Clouds
220° at 16 knots 10,000+ meters
  • Few at 4,000' AGL
Temporary Sep-25 @ 11:00 to Sep-25 @ 18:00
TEMPO 2511/2518 22020G30KT
Wind
220° at 20 knots
 Gusting to 30 knots
TAF EGPH 241656Z 2418/2518 24006KT 9999 FEW040 BECMG 2509/2512 22016KT TEMPO 2511/2518 22020G30KT
Issued Sep-24 @ 16:56 UTC
(3 hours ago)
Valid From Sep-24 @ 18:00 UTC
(2 hours ago)
Valid To Sep-25 @ 18:00 UTC
(in 22 hours)
Sep-24 @ 18:00 - Sep-25 @ 09:00
Wind Visibility
240° at 6 knots 10,000+ meters
Clouds
  • Few at 4,000' AGL
Becoming Sep-25 @ 09:00 - Sep-25 @ 18:00
Wind Visibility
220° at 16 knots 10,000+ meters
Clouds
  • Few at 4,000' AGL
Temporary Sep-25 @ 11:00 - Sep-25 @ 18:00
Wind
220° at 20 knots
 Gusting to 30 knots